Aviation Digital Data Service (ADDS)

Output produced by METARs form (1443 UTC 20 September 2017)
found at http://www.aviationweather.gov/adds/metars/
 
TAF KDAA 200900Z 2009/2115 35009KT 9999 FEW030 SCT100 QNH2987INS 
     BECMG 2014/2015 32012KT 9999 FEW100 SCT220 QNH2988INS 
     BECMG 2023/2024 34009KT 9999 FEW035 SCT200 QNH2991INS 
     BECMG 2105/2106 32009KT 9999 SCT030 SCT050 QNH2996INS TX29/2021Z TN17/2012Z
       
KDAB 201136Z 2012/2112 00000KT P6SM FEW150 
     FM201400 03004KT P6SM FEW025 
     FM201800 06009KT P6SM SCT030 
     FM210200 VRB02KT P6SM SKC
       
KDAG 201135Z 2012/2112 28016G24KT P6SM SKC 
     FM202200 26020G28KT P6SM SKC
       
KDAL 201120Z 2012/2112 17015KT P6SM FEW050 SCT250 
     TEMPO 2012/2015 BKN015
       
KDAN 201327Z 2013/2112 25003KT P6SM SCT030 
     FM201400 VRB03KT P6SM SCT100
       
KDAY 201342Z 2014/2112 20006KT P6SM BKN060 
     FM201800 24006KT P6SM SCT050 
     FM210300 VRB04KT P6SM SKC 
     FM210900 VRB03KT 5SM BR SKC
       
KDBQ 201356Z 2014/2112 18014KT P6SM SCT120 WS020/20035KT 
     FM201500 20016G23KT P6SM BKN100 
     FM201800 23012KT P6SM BKN040 
     FM202300 36009KT P6SM BKN050 
     PROB30 2023/2104 5SM -TSRA BKN035CB 
     FM210800 05005KT P6SM BKN025
       
KDCA 201120Z 2012/2112 32008KT P6SM FEW040 FEW250 
     FM201400 33008G16KT P6SM SCT050 SCT200 
     FM210000 33005KT P6SM SCT200 
     FM210300 VRB03KT P6SM SCT200
       
KDDC 201316Z 2013/2112 34011KT P6SM SCT250 
     FM201700 02013KT P6SM SKC
       
KDEC 201136Z 2012/2112 17003KT P6SM SKC 
     FM201400 19011KT P6SM FEW250 
     FM210100 18005KT P6SM SCT250
       
KDEN 201404Z 2014/2118 14018G27KT P6SM FEW100 
     FM201700 16014G22KT P6SM FEW220 
     FM202100 18014G23KT P6SM FEW120 SCT220 
     FM210100 18012KT P6SM FEW140 SCT220 
     FM210700 21011KT P6SM FEW220 
     FM211400 24006KT P6SM FEW220
       
KDET 201144Z 2012/2112 VRB03KT 3/4SM BR OVC004 
     FM201300 13005KT 4SM BR BKN008 
     FM201600 16005KT P6SM BKN022 
     FM201900 17006KT P6SM BKN035 
     FM202100 15004KT P6SM SKC 
     FM210600 VRB03KT 3SM BR SCT008 BKN030
       
KDFW 201120Z 2012/2118 17015KT P6SM FEW050 SCT250 
     TEMPO 2012/2015 BKN015 
     FM211300 18011KT P6SM SCT015
       
KDHN 201120Z 2012/2112 VRB03KT 2SM BR BKN002 
     FM201300 VRB04KT 4SM BR SCT002 
     FM201400 30005KT P6SM SCT040 
     FM202100 30006KT P6SM TS BKN040CB 
     FM210000 VRB03KT P6SM SCT040 BKN250
       
KDHT 201120Z 2012/2112 01013KT P6SM SKC 
     FM201700 16006KT P6SM SKC
       
KDIK 201126Z 2012/2112 23011KT P6SM SKC 
     FM201600 23016G24KT P6SM FEW060 FEW250 
     FM210000 19012KT P6SM FEW110 SCT150 
     FM210300 16009KT P6SM FEW110 SCT140 
     FM211100 23007KT P6SM BKN100 BKN120
       
TAF KDLF 201000Z 2010/2116 13009KT 9999 FEW020 SCT250 QNH2983INS 
     TEMPO 2013/2016 BKN010 BKN250 
     BECMG 2016/2017 15010G15KT 9999 SCT020 BKN250 QNH2977INS 
     BECMG 2102/2103 14009KT 9999 FEW060 SCT250 QNH2982INS 
     BECMG 2109/2110 14009KT 9999 BKN015 BKN250 QNH2987INS TX37/2022Z TN20/2012Z
       
KDLH 201306Z 2013/2112 14013KT P6SM SCT009 OVC015 WS015/17045KT 
     TEMPO 2013/2015 4SM BR BKN006 OVC015 
     FM201500 20009G15KT 6SM BR BKN010 
     FM201800 28013G19KT P6SM SCT050 
     FM210100 25004KT P6SM SKC 
     TEMPO 2108/2112 3SM BR
       
KDLS 201120Z 2012/2112 28004KT P6SM -RA SCT035 OVC060 
     FM201900 32015G25KT P6SM -SHRA SCT040 BKN060 
     FM210300 30008KT P6SM SCT060
       
TAF KDMA 201402Z 2014/2120 24009KT 9999 SKC QNH2993INS 
     BECMG 2018/2019 23015G25KT 9999 FEW080 520009 QNH2986INS 
     BECMG 2100/2101 23009KT 9999 SKC QNH2987INS 
     BECMG 2105/2106 14006KT 9999 SKC QNH2987INS 
     BECMG 2116/2117 23012G20KT 9999 FEW220 QNH2982INS TX34/2021Z TN18/2112Z
       
KDMN 201142Z 2012/2112 25006KT P6SM FEW250 
     FM201900 25012G22KT P6SM FEW090 SCT250 
     FM210300 27006KT P6SM FEW250
       
KDNL 201425Z 2014/2112 27005KT P6SM SCT060 
     FM210000 VRB03KT P6SM SCT100
       
TAF KDOV 200805Z 2008/2114 35012KT 9999 BKN030 QNH2980INS 
     BECMG 2014/2015 33012G18KT 9999 BKN035 QNH2988INS 
     BECMG 2023/2024 33006KT 9999 BKN030 QNH2993INS TX25/2018Z TN20/2009Z
       
KDPA 201252Z 2013/2112 13006KT 4SM BR FEW004 SCT070 
     FM201430 17008KT P6SM FEW070 
     FM201800 18014G21KT P6SM SCT060 SCT250 
     FM210100 20006KT P6SM BKN200 
     PROB30 2105/2108 -SHRA BKN050
       
KDRO 201125Z 2012/2112 36004KT P6SM SKC 
     FM201600 15004KT P6SM SKC 
     FM201900 21010G20KT P6SM SKC 
     FM210800 08004KT P6SM SKC
       
KDRT 201120Z 2012/2112 12011KT P6SM SCT250
       
KDSM 201127Z 2012/2112 19011KT P6SM SCT140 BKN250 
     FM201400 17011KT P6SM BKN035 BKN250 
     FM201500 22010KT P6SM SCT090 
     FM201700 26008KT P6SM SCT040 
     FM202100 31006KT P6SM SCT080 
     FM210200 VRB05KT P6SM BKN150
       
KDTW 201133Z 2012/2118 00000KT 1/2SM FG OVC004 
     FM201230 VRB03KT 1SM BR OVC006 
     FM201400 13005KT 4SM BR BKN008 
     FM201600 16005KT P6SM BKN022 
     FM201900 17006KT P6SM BKN035 
     FM202100 15004KT P6SM SKC 
     FM210600 VRB03KT 3SM BR SCT008 BKN030 
     FM211500 15006KT P6SM SCT035
       
KDUG 201133Z 2012/2112 17005KT P6SM SKC 
     FM201800 25014G22KT P6SM SCT070 
     FM210200 24008KT P6SM FEW090
       
KDUJ 201305Z 2013/2112 07003KT 4SM BR SKC 
     FM201400 00000KT P6SM SCT045
       
KDVL 201122Z 2012/2112 26012KT P6SM FEW120 
     FM202100 22014KT P6SM FEW200 
     FM210300 17009KT P6SM FEW250
       
TAF KDYS 200800Z 2008/2114 18012G18KT 9999 FEW080 510253 QNH2984INS 
     BECMG 2014/2015 20012G18KT 9999 SCT080 BKN100 QNH2982INS 
     BECMG 2023/2024 17012KT 9999 SCT100 QNH2984INS 
     TEMPO 2105/2109 17012G18KT TX37/2021Z TN23/2012Z